KFVX

Farmville Regional Airport

Farmville, Virginia, USA
METAR KFVX 180255Z AUTO 22003KT 10SM SCT050 03/03 A3015 RMK AO2 T00330033
Observed Flight Rules
Dec-18 @ 02:55 UTC (19 minutes ago) Visual Flight Rules
Wind Visibility Clouds
220° at 3 knots 10 miles
  • Scattered at 5,000' AGL
Temperatures Readings
Current 3°C / 37°F
Dewpoint 3°C / 37°F
Humidity 100%
Altimeter 30.15" Hg
Pressure 1021 hPa
Elevation 125
METAR KFVX 180255Z AUTO 22003KT 10SM SCT050 03/03 A3015 RMK AO2 T00330033
Observed Flight Rules
Dec-18 @ 02:55 UTC
(19 minutes ago)
VFR
Wind Visibility
220° at 3 knots 10 miles
Clouds
  • Scattered at 5,000' AGL
Temperature Dewpoint
3°C / 37°F 3°C / 37°F
Humidity Altimeter Pressure
100% 30.15" Hg 1021 hPa